createdAt,value
2023-03-26T00:00:52.514Z,95933.91
2023-03-26T00:03:19.521Z,95929.28
2023-03-26T00:08:37.704Z,95924.00
2023-03-26T00:11:05.401Z,95929.22
2023-03-26T00:13:32.010Z,95931.09
2023-03-26T00:15:58.953Z,95937.81
2023-03-26T00:18:25.963Z,95940.13
2023-03-26T00:20:52.905Z,95929.22
2023-03-26T00:23:19.629Z,95934.84
2023-03-26T00:28:13.155Z,95919.38
2023-03-26T00:30:40.036Z,95916.81
2023-03-26T00:33:07.093Z,95923.03
2023-03-26T00:35:34.016Z,95937.28
2023-03-26T00:38:00.858Z,95940.09
2023-03-26T00:40:27.582Z,95963.19
2023-03-26T00:42:56.545Z,95965.56
2023-03-26T00:45:23.144Z,95939.75
2023-03-26T00:47:50.212Z,95929.22
2023-03-26T00:50:17.204Z,95935.16
2023-03-26T00:52:44.862Z,95926.06
2023-03-26T00:55:11.489Z,95923.75
2023-03-26T00:57:38.227Z,95912.44
2023-03-26T01:00:05.675Z,95923.25
2023-03-26T01:02:32.433Z,95935.25
2023-03-26T01:04:59.273Z,95930.97
2023-03-26T01:07:25.932Z,95916.78
2023-03-26T01:09:52.515Z,95905.50
2023-03-26T01:12:20.091Z,95908.25
2023-03-26T01:14:58.203Z,95898.22
2023-03-26T01:23:49.932Z,95865.56
2023-03-26T01:37:50.490Z,95831.81
2023-03-26T01:46:05.573Z,95832.09
2023-03-26T01:51:28.836Z,95820.31
2023-03-26T01:53:55.673Z,95818.75
2023-03-26T01:56:22.171Z,95791.66
2023-03-26T01:58:49.001Z,95784.75
2023-03-26T02:01:15.572Z,95795.31
2023-03-26T02:03:43.348Z,95782.78
2023-03-26T02:06:10.055Z,95778.53
2023-03-26T02:08:36.866Z,95781.63
2023-03-26T02:11:03.834Z,95781.06
2023-03-26T02:13:31.280Z,95778.56
2023-03-26T02:15:58.036Z,95771.59
2023-03-26T02:30:45.046Z,95751.47
2023-03-26T02:33:13.868Z,95756.47
2023-03-26T02:35:40.945Z,95741.06
2023-03-26T02:38:08.622Z,95752.34
2023-03-26T02:40:35.416Z,95747.53
2023-03-26T02:43:02.409Z,95737.38
2023-03-26T02:45:28.981Z,95732.41
2023-03-26T02:47:55.721Z,95734.28
2023-03-26T02:50:22.270Z,95724.38
2023-03-26T02:52:49.139Z,95718.69
2023-03-26T02:55:15.874Z,95722.94
2023-03-26T02:57:42.732Z,95719.88
2023-03-26T03:00:09.329Z,95719.44
2023-03-26T03:02:36.707Z,95715.28
2023-03-26T03:05:03.800Z,95700.59
2023-03-26T03:07:30.903Z,95687.22
2023-03-26T03:09:58.231Z,95682.69
2023-03-26T03:12:27.378Z,95689.50
2023-03-26T03:14:54.721Z,95677.09
2023-03-26T03:17:21.592Z,95674.09
2023-03-26T03:19:48.121Z,95672.97
2023-03-26T03:22:17.227Z,95660.41
2023-03-26T03:24:43.792Z,95659.28
2023-03-26T03:27:10.577Z,95646.75
2023-03-26T03:29:37.427Z,95639.72
2023-03-26T03:32:04.152Z,95642.72
2023-03-26T03:34:30.664Z,95649.56
2023-03-26T03:36:57.170Z,95640.25
2023-03-26T03:39:24.659Z,95643.03
2023-03-26T03:41:51.431Z,95638.66
2023-03-26T03:44:17.993Z,95640.31
2023-03-26T03:46:45.009Z,95638.25
2023-03-26T03:49:11.486Z,95629.31
2023-03-26T03:51:38.377Z,95627.59
2023-03-26T03:54:06.923Z,95617.56
2023-03-26T03:56:33.488Z,95617.84
2023-03-26T03:59:00.660Z,95611.84
2023-03-26T04:01:27.276Z,95610.38
2023-03-26T04:03:53.924Z,95616.91
2023-03-26T04:06:23.177Z,95609.53
2023-03-26T04:08:49.896Z,95599.34
2023-03-26T04:11:16.528Z,95603.31
2023-03-26T04:13:43.345Z,95603.47
2023-03-26T04:16:10.057Z,95599.47
2023-03-26T04:18:36.752Z,95595.41
2023-03-26T04:23:59.487Z,95595.16
2023-03-26T04:26:26.142Z,95586.78
2023-03-26T04:28:53.041Z,95585.41
2023-03-26T04:31:19.832Z,95586.25
2023-03-26T04:33:46.816Z,95591.88
2023-03-26T04:36:13.419Z,95594.53
2023-03-26T04:38:39.981Z,95598.22
2023-03-26T04:41:06.518Z,95588.38
2023-03-26T04:43:35.603Z,95581.59
2023-03-26T04:46:04.324Z,95579.53
2023-03-26T04:48:30.872Z,95566.47
2023-03-26T04:50:57.685Z,95558.69
2023-03-26T04:53:24.551Z,95578.50
2023-03-26T04:55:51.078Z,95583.53
2023-03-26T04:58:17.734Z,95579.16
2023-03-26T05:00:45.337Z,95576.59
2023-03-26T05:03:11.835Z,95574.31
2023-03-26T05:05:39.155Z,95576.66
2023-03-26T05:08:05.646Z,95583.72
2023-03-26T05:10:32.451Z,95588.59
2023-03-26T05:12:58.966Z,95586.28
2023-03-26T05:15:25.756Z,95594.50
2023-03-26T05:17:52.314Z,95593.09
2023-03-26T05:20:19.107Z,95580.81
2023-03-26T05:22:45.535Z,95576.31
2023-03-26T05:25:12.178Z,95583.09
2023-03-26T05:27:38.821Z,95566.22
2023-03-26T05:30:05.476Z,95543.88
2023-03-26T05:32:34.957Z,95536.13
2023-03-26T05:35:01.826Z,95524.69
2023-03-26T05:37:36.105Z,95524.19
2023-03-26T05:40:02.936Z,95524.59
2023-03-26T05:42:29.490Z,95536.31
2023-03-26T05:44:56.225Z,95533.44
2023-03-26T05:47:25.775Z,95510.09
2023-03-26T05:49:52.559Z,95515.38
2023-03-26T05:52:19.292Z,95525.66
2023-03-26T05:54:48.281Z,95522.56
2023-03-26T05:57:14.859Z,95532.56
2023-03-26T05:59:41.459Z,95537.25
2023-03-26T06:02:09.944Z,95521.09
2023-03-26T06:04:36.815Z,95541.22
2023-03-26T06:07:03.640Z,95560.97
2023-03-26T06:09:30.457Z,95557.84
2023-03-26T06:11:57.263Z,95565.81
2023-03-26T06:14:23.778Z,95590.03
2023-03-26T06:16:50.355Z,95573.97
2023-03-26T06:19:17.605Z,95579.97
2023-03-26T06:21:44.301Z,95579.56
2023-03-26T06:24:11.065Z,95589.34
2023-03-26T06:26:37.877Z,95574.19
2023-03-26T06:29:04.715Z,95568.94
2023-03-26T06:31:31.338Z,95547.09
2023-03-26T06:33:57.954Z,95561.75
2023-03-26T06:36:24.734Z,95564.94
2023-03-26T06:38:53.873Z,95557.69
2023-03-26T06:41:22.483Z,95562.59
2023-03-26T06:43:49.029Z,95551.69
2023-03-26T06:46:16.658Z,95548.94
2023-03-26T06:48:43.276Z,95536.50
2023-03-26T06:51:10.061Z,95529.31
2023-03-26T06:53:36.828Z,95521.34
2023-03-26T06:56:10.857Z,95522.88
2023-03-26T07:01:08.816Z,95515.06
2023-03-26T07:03:35.657Z,95520.16
2023-03-26T07:06:04.726Z,95533.81
2023-03-26T07:08:31.612Z,95536.28
2023-03-26T07:10:59.396Z,95531.09
2023-03-26T07:13:26.041Z,95526.44
2023-03-26T07:15:52.889Z,95524.06
2023-03-26T07:18:19.473Z,95531.09
2023-03-26T07:20:46.329Z,95516.38
2023-03-26T07:23:13.221Z,95521.72
2023-03-26T07:25:40.047Z,95525.31
2023-03-26T07:28:07.335Z,95501.41
2023-03-26T07:30:34.916Z,95499.63
2023-03-26T07:33:01.745Z,95492.09
2023-03-26T07:35:28.399Z,95506.22
2023-03-26T07:41:10.527Z,95500.81
2023-03-26T07:43:37.087Z,95494.03
2023-03-26T07:46:04.437Z,95496.53
2023-03-26T07:48:35.612Z,95506.72
2023-03-26T07:51:02.470Z,95524.31
2023-03-26T07:53:29.261Z,95529.63
2023-03-26T07:55:58.071Z,95554.44
2023-03-26T07:58:27.351Z,95542.69
2023-03-26T08:00:54.230Z,95559.06
2023-03-26T08:03:21.361Z,95558.00
2023-03-26T08:06:08.215Z,95526.09
2023-03-26T08:08:54.976Z,95496.41
2023-03-26T08:11:42.243Z,95477.34
2023-03-26T08:14:29.004Z,95475.84
2023-03-26T08:17:15.664Z,95515.22
2023-03-26T08:20:02.740Z,95520.63
2023-03-26T08:22:49.511Z,95527.22
2023-03-26T08:25:37.948Z,95517.09
2023-03-26T08:28:25.021Z,95476.41
2023-03-26T08:30:55.108Z,95511.13
2023-03-26T08:33:42.548Z,95528.63
2023-03-26T08:36:30.088Z,95543.41
2023-03-26T08:39:16.669Z,95541.50
2023-03-26T08:42:05.135Z,95531.97
2023-03-26T08:44:52.665Z,95517.28
2023-03-26T08:47:39.886Z,95528.22
2023-03-26T08:50:28.599Z,95530.66
2023-03-26T08:52:55.504Z,95527.28
2023-03-26T08:55:22.315Z,95521.63
2023-03-26T08:57:48.891Z,95523.09
2023-03-26T09:00:15.718Z,95514.47
2023-03-26T09:02:42.442Z,95517.97
2023-03-26T09:05:09.363Z,95530.06
2023-03-26T09:07:36.176Z,95522.88
2023-03-26T09:10:02.754Z,95531.16
2023-03-26T09:12:29.619Z,95517.53
2023-03-26T09:14:59.832Z,95521.09
2023-03-26T09:17:29.592Z,95516.53
2023-03-26T09:19:56.066Z,95507.38
2023-03-26T09:22:22.526Z,95507.59
2023-03-26T09:24:49.479Z,95513.94
2023-03-26T09:27:15.955Z,95516.94
2023-03-26T09:29:42.690Z,95512.59
2023-03-26T09:32:09.705Z,95498.41
2023-03-26T09:34:36.503Z,95499.78
2023-03-26T09:37:03.004Z,95493.88
2023-03-26T09:39:29.768Z,95496.19
2023-03-26T09:41:56.611Z,95495.22
2023-03-26T09:47:21.465Z,95468.50
2023-03-26T09:49:48.471Z,95466.06
2023-03-26T09:52:19.834Z,95462.13
2023-03-26T09:54:47.135Z,95461.06
2023-03-26T09:57:14.036Z,95470.88
2023-03-26T09:59:40.786Z,95483.38
2023-03-26T10:02:10.613Z,95480.44
2023-03-26T10:04:37.412Z,95483.00
2023-03-26T10:07:05.028Z,95482.41
2023-03-26T10:09:31.541Z,95487.38
2023-03-26T10:11:58.797Z,95496.38
2023-03-26T10:14:25.673Z,95492.44
2023-03-26T10:16:52.616Z,95479.34
2023-03-26T10:19:23.322Z,95496.16
2023-03-26T10:21:51.072Z,95485.63
2023-03-26T10:24:17.636Z,95492.81
2023-03-26T10:27:08.334Z,95477.78
2023-03-26T10:32:38.727Z,95510.97
2023-03-26T10:35:08.522Z,95511.03
2023-03-26T10:37:35.876Z,95526.13
2023-03-26T10:40:02.534Z,95520.84
2023-03-26T10:42:31.391Z,95511.81
2023-03-26T10:44:58.166Z,95514.06
2023-03-26T10:49:54.713Z,95515.19
2023-03-26T10:52:23.588Z,95510.91
2023-03-26T10:54:50.475Z,95517.53
2023-03-26T10:57:17.329Z,95518.91
2023-03-26T10:59:44.131Z,95497.97
2023-03-26T11:02:11.275Z,95505.00
2023-03-26T11:04:38.114Z,95497.16
2023-03-26T11:07:05.891Z,95481.31
2023-03-26T11:09:35.486Z,95475.88
2023-03-26T11:12:03.048Z,95473.88
2023-03-26T11:14:49.781Z,95485.34
2023-03-26T11:17:40.335Z,95486.66
2023-03-26T11:20:05.442Z,95495.97
2023-03-26T11:22:32.684Z,95503.09
2023-03-26T11:24:59.592Z,95509.84
2023-03-26T11:27:26.547Z,95517.16
2023-03-26T11:29:54.467Z,95487.84
2023-03-26T11:32:21.007Z,95489.47
2023-03-26T11:34:47.982Z,95495.69
2023-03-26T11:37:15.143Z,95502.97
2023-03-26T11:39:41.760Z,95496.63
2023-03-26T11:42:09.146Z,95506.09
2023-03-26T11:44:35.733Z,95495.81
2023-03-26T11:47:02.605Z,95471.59
2023-03-26T11:49:30.091Z,95467.06
2023-03-26T11:51:56.857Z,95469.00
2023-03-26T11:54:23.678Z,95450.38
2023-03-26T11:57:04.409Z,95429.88
2023-03-26T11:59:39.282Z,95408.94
2023-03-26T12:02:13.846Z,95396.03
2023-03-26T12:04:40.769Z,95404.69
2023-03-26T12:10:17.841Z,95375.78
2023-03-26T12:12:50.493Z,95367.13
2023-03-26T12:15:17.067Z,95363.00
2023-03-26T12:17:44.607Z,95361.09
2023-03-26T12:20:11.076Z,95379.09
2023-03-26T12:22:37.870Z,95392.66
2023-03-26T12:25:07.021Z,95395.66
2023-03-26T12:27:36.181Z,95399.28
2023-03-26T12:30:02.765Z,95393.69
2023-03-26T12:32:42.946Z,95362.59
2023-03-26T12:35:31.147Z,95352.94
2023-03-26T12:37:59.830Z,95349.50
2023-03-26T12:40:26.419Z,95340.66
2023-03-26T12:44:47.788Z,95344.34
2023-03-26T12:45:41.968Z,95356.22
2023-03-26T12:48:09.944Z,95388.56
2023-03-26T12:50:38.813Z,95420.03
2023-03-26T12:53:05.787Z,95418.81
2023-03-26T12:55:32.368Z,95414.81
2023-03-26T13:00:29.726Z,95432.41
2023-03-26T13:02:58.292Z,95448.28
2023-03-26T13:05:25.274Z,95467.13
2023-03-26T13:07:53.612Z,95490.81
2023-03-26T13:10:20.478Z,95500.34
2023-03-26T13:16:03.490Z,95430.41
2023-03-26T13:18:31.114Z,95406.91
2023-03-26T13:20:58.070Z,95403.97
2023-03-26T13:26:34.159Z,95427.16
2023-03-26T13:29:03.950Z,95435.06
2023-03-26T13:31:30.591Z,95440.50
2023-03-26T13:33:57.188Z,95445.13
2023-03-26T13:36:25.264Z,95434.88
2023-03-26T13:41:38.373Z,95437.56
2023-03-26T13:44:04.913Z,95445.16
2023-03-26T13:46:32.312Z,95434.59
2023-03-26T13:48:59.168Z,95433.44
2023-03-26T13:51:26.451Z,95423.91
2023-03-26T13:53:53.445Z,95429.50
2023-03-26T13:56:20.084Z,95424.63
2023-03-26T13:58:47.951Z,95432.84
2023-03-26T14:01:14.862Z,95431.81
2023-03-26T14:03:41.777Z,95431.13
2023-03-26T14:06:08.386Z,95425.59
2023-03-26T14:08:35.006Z,95424.50
2023-03-26T14:11:03.679Z,95423.22
2023-03-26T14:13:30.473Z,95438.84
2023-03-26T14:15:57.084Z,95436.19
2023-03-26T14:18:24.437Z,95452.31
2023-03-26T14:20:53.319Z,95456.84
2023-03-26T14:26:16.052Z,95452.91
2023-03-26T14:28:42.807Z,95456.72
2023-03-26T14:31:09.730Z,95453.59
2023-03-26T14:33:36.622Z,95461.75
2023-03-26T14:38:55.018Z,95450.84
2023-03-26T14:41:23.570Z,95456.44
2023-03-26T14:43:50.617Z,95447.91
2023-03-26T14:46:17.284Z,95445.66
2023-03-26T14:48:51.475Z,95446.81
2023-03-26T14:51:22.587Z,95454.31
2023-03-26T14:53:49.274Z,95453.84
2023-03-26T14:56:16.725Z,95452.78
2023-03-26T14:58:43.541Z,95457.47
2023-03-26T15:01:10.542Z,95452.41
2023-03-26T15:03:37.087Z,95457.13
2023-03-26T15:06:03.677Z,95456.13
2023-03-26T15:08:34.340Z,95465.13
2023-03-26T15:11:01.088Z,95456.16
2023-03-26T15:13:27.916Z,95461.03
2023-03-26T15:15:55.229Z,95460.78
2023-03-26T15:18:24.034Z,95453.03
2023-03-26T15:20:51.651Z,95446.78
2023-03-26T15:23:22.589Z,95452.97
2023-03-26T15:25:50.003Z,95446.56
2023-03-26T15:28:17.340Z,95443.00
2023-03-26T15:30:44.887Z,95434.75
2023-03-26T15:33:11.530Z,95445.44
2023-03-26T15:35:38.883Z,95440.47
2023-03-26T15:38:06.274Z,95448.88
2023-03-26T15:40:35.116Z,95440.78
2023-03-26T16:01:49.545Z,95406.50
2023-03-26T16:04:16.848Z,95403.59
2023-03-26T16:06:45.022Z,95405.81
2023-03-26T16:09:11.635Z,95397.63
2023-03-26T16:11:38.524Z,95393.53
2023-03-26T16:14:05.299Z,95387.97
2023-03-26T16:16:33.741Z,95384.16
2023-03-26T16:19:02.274Z,95382.97
2023-03-26T16:21:31.430Z,95380.00
2023-03-26T16:23:58.824Z,95380.13
2023-03-26T16:26:25.580Z,95383.44
2023-03-26T16:28:52.233Z,95372.59
2023-03-26T16:31:36.753Z,95363.72
2023-03-26T16:34:05.459Z,95366.56
2023-03-26T16:36:32.033Z,95366.28
2023-03-26T16:39:01.132Z,95352.38
2023-03-26T17:16:23.650Z,95329.53
2023-03-26T17:18:50.322Z,95329.09
2023-03-26T17:21:16.832Z,95329.22
2023-03-26T17:23:43.426Z,95317.72
2023-03-26T17:26:10.229Z,95315.84
2023-03-26T17:28:37.809Z,95307.72
2023-03-26T17:31:04.526Z,95308.50
2023-03-26T17:33:32.085Z,95315.97
2023-03-26T17:35:59.409Z,95320.28
2023-03-26T17:38:25.948Z,95307.00
2023-03-26T17:44:04.428Z,95312.13
2023-03-26T17:46:33.423Z,95305.72
2023-03-26T17:49:00.277Z,95305.41
2023-03-26T17:51:27.062Z,95308.34
2023-03-26T17:53:55.856Z,95306.41
2023-03-26T17:56:22.446Z,95297.00
2023-03-26T17:58:49.965Z,95300.50
2023-03-26T18:01:16.587Z,95289.28
2023-03-26T18:03:44.476Z,95284.13
2023-03-26T18:06:11.386Z,95296.88
2023-03-26T18:08:40.272Z,95292.69
2023-03-26T18:11:07.784Z,95296.03
2023-03-26T18:13:35.721Z,95306.63
2023-03-26T18:16:03.206Z,95291.72
2023-03-26T18:18:32.235Z,95315.03
2023-03-26T18:20:59.650Z,95328.69
2023-03-26T18:23:27.444Z,95341.63
2023-03-26T18:25:53.879Z,95339.66
2023-03-26T18:28:20.369Z,95347.94
2023-03-26T18:30:46.838Z,95356.66
2023-03-26T18:33:14.707Z,95359.47
2023-03-26T18:35:41.351Z,95353.97
2023-03-26T18:38:08.208Z,95347.97
2023-03-26T18:40:34.730Z,95349.97
2023-03-26T18:43:02.059Z,95353.19
2023-03-26T18:45:28.987Z,95352.28
2023-03-26T18:47:55.954Z,95352.69
2023-03-26T18:50:22.767Z,95345.09
2023-03-26T18:52:50.848Z,95343.03
2023-03-26T18:55:19.840Z,95341.41
2023-03-26T18:57:47.653Z,95349.13
2023-03-26T19:00:14.383Z,95347.59
2023-03-26T19:02:41.311Z,95344.91
2023-03-26T19:05:08.152Z,95336.25
2023-03-26T19:07:34.836Z,95331.84
2023-03-26T19:10:03.816Z,95324.59
2023-03-26T19:12:32.176Z,95324.97
2023-03-26T19:15:02.312Z,95325.09
2023-03-26T19:17:29.654Z,95325.31
2023-03-26T19:19:57.485Z,95319.03
2023-03-26T19:22:24.360Z,95317.25
2023-03-26T19:34:15.696Z,95297.16
2023-03-26T20:46:44.184Z,95313.03
2023-03-26T20:49:11.091Z,95323.28
2023-03-26T20:51:38.494Z,95327.25
2023-03-26T20:54:06.834Z,95322.41
2023-03-26T20:56:34.257Z,95320.16
2023-03-26T20:59:11.018Z,95334.03
2023-03-26T21:01:38.423Z,95330.97
2023-03-26T21:04:05.468Z,95335.59
2023-03-26T21:06:44.926Z,95336.19
2023-03-26T21:09:11.886Z,95337.84
2023-03-26T21:11:40.989Z,95337.78
2023-03-26T21:14:07.580Z,95337.47
2023-03-26T21:16:34.981Z,95343.91
2023-03-26T21:19:01.624Z,95353.94
2023-03-26T21:33:11.619Z,95386.78
2023-03-26T21:35:42.014Z,95387.59
2023-03-26T21:38:11.430Z,95392.63
2023-03-26T21:40:42.240Z,95396.28
2023-03-26T21:43:17.414Z,95399.94
2023-03-26T21:45:44.311Z,95395.97
2023-03-26T21:51:16.483Z,95401.03
2023-03-26T21:53:43.896Z,95401.63
2023-03-26T21:56:11.451Z,95404.31
2023-03-26T21:58:38.702Z,95400.69
2023-03-26T22:01:05.527Z,95410.44
2023-03-26T22:03:32.623Z,95411.94
2023-03-26T22:05:59.635Z,95411.41
2023-03-26T22:08:26.235Z,95419.66
2023-03-26T22:10:53.065Z,95421.44
2023-03-26T22:13:19.663Z,95421.28
2023-03-26T22:15:46.590Z,95429.19
2023-03-26T22:18:13.901Z,95434.19
2023-03-26T22:20:42.869Z,95429.94
2023-03-26T22:23:09.705Z,95441.38
2023-03-26T22:25:54.245Z,95448.97
2023-03-26T22:28:20.877Z,95450.31
2023-03-26T22:30:48.092Z,95449.94
2023-03-26T22:33:15.482Z,95460.28
2023-03-26T22:38:32.905Z,95475.03
2023-03-26T22:40:59.754Z,95483.34
2023-03-26T22:43:27.143Z,95479.47
2023-03-26T22:45:54.350Z,95497.44
2023-03-26T22:48:21.350Z,95507.75
2023-03-26T22:50:48.213Z,95515.63
2023-03-26T22:53:14.827Z,95520.06
2023-03-26T22:55:41.581Z,95509.31
2023-03-26T22:58:08.195Z,95510.25
2023-03-26T23:00:35.679Z,95515.09
2023-03-26T23:03:02.792Z,95512.53
2023-03-26T23:05:30.354Z,95522.44
2023-03-26T23:07:59.369Z,95529.59
2023-03-26T23:10:27.719Z,95534.47
2023-03-26T23:12:55.230Z,95536.38
2023-03-26T23:15:21.745Z,95539.19
2023-03-26T23:17:54.724Z,95533.66
2023-03-26T23:20:21.766Z,95545.09
2023-03-26T23:25:58.460Z,95551.50
2023-03-26T23:28:25.831Z,95551.13
2023-03-26T23:30:59.524Z,95554.44
2023-03-26T23:33:26.404Z,95562.66
2023-03-26T23:39:02.524Z,95576.94
2023-03-26T23:41:29.157Z,95588.44
2023-03-26T23:43:56.138Z,95589.78
2023-03-26T23:46:23.430Z,95589.31
2023-03-26T23:48:49.946Z,95590.00
2023-03-26T23:51:18.989Z,95587.78
2023-03-26T23:53:46.407Z,95592.53
2023-03-26T23:56:12.997Z,95599.38
2023-03-26T23:58:40.036Z,95605.78
